createdAt,value
2018-09-06T00:00:15.734Z,28.27
2018-09-06T00:02:43.921Z,29.23
2018-09-06T00:05:12.185Z,30.27
2018-09-06T00:07:40.467Z,30.77
2018-09-06T00:10:08.661Z,26.57
2018-09-06T00:12:36.853Z,28.07
2018-09-06T00:15:05.277Z,28.00
2018-09-06T00:17:33.580Z,28.60
2018-09-06T00:20:01.822Z,26.17
2018-09-06T00:22:30.021Z,25.50
2018-09-06T00:24:58.264Z,26.57
2018-09-06T00:27:26.479Z,25.47
2018-09-06T00:29:54.739Z,24.00
2018-09-06T00:32:23.037Z,23.20
2018-09-06T00:34:51.291Z,25.20
2018-09-06T00:37:19.590Z,21.85
2018-09-06T00:39:47.867Z,22.20
2018-09-06T00:42:16.638Z,22.67
2018-09-06T00:44:44.967Z,22.67
2018-09-06T00:47:13.536Z,20.50
2018-09-06T00:49:42.001Z,22.10
2018-09-06T00:52:10.168Z,23.17
2018-09-06T00:54:38.364Z,24.93
2018-09-06T00:57:06.528Z,25.73
2018-09-06T00:59:34.766Z,25.00
2018-09-06T01:02:03.034Z,26.30
2018-09-06T01:04:31.214Z,26.50
2018-09-06T01:06:59.416Z,24.37
2018-09-06T01:09:27.627Z,24.60
2018-09-06T01:11:55.849Z,24.70
2018-09-06T01:14:24.042Z,24.43
2018-09-06T01:16:52.237Z,24.70
2018-09-06T01:19:20.609Z,23.80
2018-09-06T01:21:49.183Z,23.17
2018-09-06T01:24:17.617Z,21.90
2018-09-06T01:26:45.829Z,23.87
2018-09-06T01:29:14.003Z,23.40
2018-09-06T01:31:42.355Z,22.97
2018-09-06T01:34:10.553Z,22.03
2018-09-06T01:36:44.229Z,22.90
2018-09-06T01:39:12.389Z,25.53
2018-09-06T01:41:40.601Z,23.30
2018-09-06T01:44:08.885Z,23.73
2018-09-06T01:46:37.927Z,23.00
2018-09-06T01:49:06.577Z,23.37
2018-09-06T01:51:35.480Z,24.00
2018-09-06T01:54:03.700Z,23.67
2018-09-06T01:56:32.708Z,23.20
2018-09-06T01:59:01.349Z,24.10
2018-09-06T02:01:29.521Z,22.23
2018-09-06T02:03:57.998Z,23.70
2018-09-06T02:06:26.310Z,23.80
2018-09-06T02:08:54.826Z,22.50
2018-09-06T02:11:23.089Z,22.93
2018-09-06T02:13:51.361Z,22.57
2018-09-06T02:16:19.573Z,22.30
2018-09-06T02:18:48.180Z,22.90
2018-09-06T02:21:16.394Z,22.80
2018-09-06T02:23:44.878Z,23.60
2018-09-06T02:26:13.047Z,22.13
2018-09-06T02:28:41.229Z,23.47
2018-09-06T02:31:09.418Z,25.27
2018-09-06T02:33:37.606Z,22.27
2018-09-06T02:36:05.873Z,22.40
2018-09-06T02:38:34.146Z,23.77
2018-09-06T02:41:02.379Z,22.50
2018-09-06T02:43:30.565Z,22.87
2018-09-06T02:45:58.983Z,25.00
2018-09-06T02:48:32.677Z,24.53
2018-09-06T02:51:06.149Z,24.57
2018-09-06T02:53:34.441Z,23.23
2018-09-06T02:56:03.037Z,24.60
2018-09-06T02:58:31.325Z,23.57
2018-09-06T03:00:59.818Z,24.27
2018-09-06T03:03:28.378Z,24.93
2018-09-06T03:05:56.645Z,25.03
2018-09-06T03:08:24.926Z,25.40
2018-09-06T03:10:56.034Z,24.80
2018-09-06T03:13:24.240Z,25.20
2018-09-06T03:15:52.444Z,24.33
2018-09-06T03:18:20.694Z,24.87
2018-09-06T03:20:48.886Z,24.07
2018-09-06T03:23:17.120Z,22.70
2018-09-06T03:25:45.332Z,23.57
2018-09-06T03:28:13.620Z,23.27
2018-09-06T03:30:41.834Z,23.47
2018-09-06T03:33:10.037Z,30.40
2018-09-06T03:35:38.320Z,25.40
2018-09-06T03:38:06.584Z,24.10
2018-09-06T03:40:34.863Z,24.40
2018-09-06T03:43:03.151Z,22.90
2018-09-06T03:45:31.582Z,24.03
2018-09-06T03:48:00.625Z,24.87
2018-09-06T03:50:28.810Z,24.33
2018-09-06T03:52:57.162Z,33.23
2018-09-06T03:55:25.439Z,26.60
2018-09-06T03:57:53.633Z,25.27
2018-09-06T04:00:21.837Z,24.90
2018-09-06T04:02:50.017Z,23.50
2018-09-06T04:05:18.705Z,26.07
2018-09-06T04:07:46.921Z,23.60
2018-09-06T04:10:15.307Z,24.60
2018-09-06T04:12:43.589Z,22.57
2018-09-06T04:15:11.852Z,22.40
2018-09-06T04:17:40.041Z,28.13
2018-09-06T04:20:08.629Z,41.07
2018-09-06T04:22:41.088Z,37.67
2018-09-06T04:25:09.264Z,29.60
2018-09-06T04:27:37.469Z,26.83
2018-09-06T04:30:05.690Z,25.73
2018-09-06T04:32:33.897Z,24.90
2018-09-06T04:35:02.087Z,23.50
2018-09-06T04:37:30.313Z,22.80
2018-09-06T04:39:58.498Z,22.40
2018-09-06T04:42:27.010Z,22.30
2018-09-06T04:44:55.194Z,22.13
2018-09-06T04:47:23.387Z,23.80
2018-09-06T04:49:51.556Z,23.27
2018-09-06T04:52:19.742Z,24.00
2018-09-06T04:54:47.982Z,25.10
2018-09-06T04:57:16.514Z,24.50
2018-09-06T04:59:44.717Z,25.07
2018-09-06T05:02:12.993Z,24.23
2018-09-06T05:04:41.331Z,24.87
2018-09-06T05:07:09.557Z,25.00
2018-09-06T05:09:37.845Z,24.53
2018-09-06T05:12:06.318Z,24.83
2018-09-06T05:14:34.729Z,23.93
2018-09-06T05:17:03.441Z,25.50
2018-09-06T05:19:31.869Z,24.87
2018-09-06T05:22:00.124Z,24.50
2018-09-06T05:24:28.660Z,25.77
2018-09-06T05:26:57.189Z,26.10
2018-09-06T05:29:25.372Z,24.30
2018-09-06T05:31:53.921Z,24.70
2018-09-06T05:34:22.109Z,25.30
2018-09-06T05:36:50.315Z,25.63
2018-09-06T05:39:18.596Z,25.10
2018-09-06T05:41:46.774Z,25.30
2018-09-06T05:44:15.231Z,25.30
2018-09-06T05:46:43.549Z,26.27
2018-09-06T05:49:11.784Z,26.53
2018-09-06T05:51:40.026Z,25.97
2018-09-06T05:54:08.426Z,25.90
2018-09-06T05:56:36.612Z,26.87
2018-09-06T05:59:04.898Z,23.73
2018-09-06T06:01:33.085Z,28.10
2018-09-06T06:04:01.256Z,26.83
2018-09-06T06:06:29.534Z,28.07
2018-09-06T06:08:57.818Z,25.83
2018-09-06T06:11:26.011Z,25.43
2018-09-06T06:13:54.245Z,23.67
2018-09-06T06:16:22.489Z,23.73
2018-09-06T06:18:50.689Z,24.53
2018-09-06T06:21:18.973Z,24.03
2018-09-06T06:23:47.261Z,25.83
2018-09-06T06:26:15.535Z,26.90
2018-09-06T06:28:43.728Z,24.73
2018-09-06T06:31:11.907Z,25.53
2018-09-06T06:33:40.113Z,25.67
2018-09-06T06:36:08.329Z,24.30
2018-09-06T06:38:36.589Z,24.13
2018-09-06T06:41:04.772Z,25.97
2018-09-06T06:43:32.956Z,24.33
2018-09-06T06:46:01.156Z,24.23
2018-09-06T06:48:29.352Z,27.67
2018-09-06T06:50:57.568Z,26.80
2018-09-06T06:53:25.864Z,26.50
2018-09-06T06:55:54.066Z,25.50
2018-09-06T06:58:22.302Z,22.93
2018-09-06T07:00:50.627Z,25.17
2018-09-06T07:03:18.777Z,23.20
2018-09-06T07:05:46.953Z,21.50
2018-09-06T07:08:15.191Z,24.47
2018-09-06T07:10:43.393Z,22.87
2018-09-06T07:13:11.651Z,24.27
2018-09-06T07:15:39.863Z,22.83
2018-09-06T07:18:08.119Z,20.30
2018-09-06T07:20:36.229Z,21.93
2018-09-06T07:23:04.462Z,22.03
2018-09-06T07:25:32.709Z,20.57
2018-09-06T07:28:01.221Z,20.63
2018-09-06T07:30:29.753Z,20.97
2018-09-06T07:32:57.905Z,20.83
2018-09-06T07:35:28.113Z,19.70
2018-09-06T07:37:56.309Z,19.40
2018-09-06T07:40:24.643Z,19.23
2018-09-06T07:42:52.908Z,18.43
2018-09-06T07:45:21.190Z,18.77
2018-09-06T07:47:49.456Z,18.20
2018-09-06T07:50:17.736Z,17.07
2018-09-06T07:52:46.029Z,17.10
2018-09-06T07:55:14.257Z,17.67
2018-09-06T07:57:42.475Z,16.57
2018-09-06T08:00:10.686Z,17.43
2018-09-06T08:02:38.887Z,15.07
2018-09-06T08:05:07.104Z,15.93
2018-09-06T08:07:35.639Z,15.20
2018-09-06T08:10:04.078Z,16.17
2018-09-06T08:12:32.328Z,16.80
2018-09-06T08:15:00.614Z,16.90
2018-09-06T08:17:28.882Z,15.20
2018-09-06T08:19:57.138Z,17.40
2018-09-06T08:22:25.377Z,17.47
2018-09-06T08:24:53.571Z,17.10
2018-09-06T08:27:21.934Z,15.43
2018-09-06T08:29:50.235Z,16.20
2018-09-06T08:32:18.425Z,15.97
2018-09-06T08:34:46.900Z,16.33
2018-09-06T08:37:15.099Z,16.20
2018-09-06T08:39:43.297Z,17.13
2018-09-06T08:42:11.474Z,15.80
2018-09-06T08:44:39.720Z,14.97
2018-09-06T08:47:07.990Z,16.73
2018-09-06T08:49:36.277Z,15.90
2018-09-06T08:52:04.544Z,16.80
2018-09-06T08:54:32.710Z,15.50
2018-09-06T08:57:00.920Z,15.07
2018-09-06T08:59:29.236Z,16.40
2018-09-06T09:01:57.426Z,14.90
2018-09-06T09:04:25.686Z,14.00
2018-09-06T09:06:53.898Z,14.23
2018-09-06T09:09:22.116Z,14.20
2018-09-06T09:11:50.292Z,14.73
2018-09-06T09:14:18.523Z,14.40
2018-09-06T09:16:46.806Z,14.17
2018-09-06T09:19:15.026Z,12.40
2018-09-06T09:21:43.236Z,13.43
2018-09-06T09:24:11.384Z,14.13
2018-09-06T09:26:39.566Z,12.70
2018-09-06T09:29:07.778Z,13.37
2018-09-06T09:31:36.365Z,13.13
2018-09-06T09:34:04.629Z,11.90
2018-09-06T09:36:32.814Z,12.23
2018-09-06T09:39:01.070Z,12.80
2018-09-06T09:41:29.250Z,15.60
2018-09-06T09:43:57.472Z,13.60
2018-09-06T09:51:21.857Z,12.60
2018-09-06T09:53:50.113Z,12.23
2018-09-06T09:56:18.425Z,11.93
2018-09-06T09:58:46.697Z,12.30
2018-09-06T10:01:15.145Z,11.40
2018-09-06T10:03:48.910Z,11.10
2018-09-06T10:06:22.437Z,11.63
2018-09-06T10:08:56.273Z,11.37
2018-09-06T10:11:24.788Z,11.83
2018-09-06T10:13:53.081Z,11.53
2018-09-06T10:16:21.316Z,11.00
2018-09-06T10:18:49.741Z,11.33
2018-09-06T10:21:18.098Z,11.40
2018-09-06T10:23:46.636Z,11.10
2018-09-06T10:26:14.921Z,11.90
2018-09-06T10:28:43.469Z,11.50
2018-09-06T10:31:11.989Z,10.40
2018-09-06T10:33:40.198Z,10.30
2018-09-06T10:36:08.436Z,10.90
2018-09-06T10:38:36.951Z,10.30
2018-09-06T10:41:05.132Z,14.60
2018-09-06T10:43:33.881Z,11.53
2018-09-06T10:46:02.169Z,9.83
2018-09-06T10:48:30.456Z,10.23
2018-09-06T10:50:58.685Z,8.77
2018-09-06T10:53:27.078Z,8.87
2018-09-06T10:55:55.813Z,9.27
2018-09-06T10:58:24.191Z,9.10
2018-09-06T11:00:56.622Z,8.10
2018-09-06T11:03:24.917Z,9.37
2018-09-06T11:05:53.105Z,17.23
2018-09-06T11:08:21.330Z,8.17
2018-09-06T11:10:49.485Z,9.20
2018-09-06T11:13:17.669Z,7.90
2018-09-06T11:15:45.857Z,7.43
2018-09-06T11:18:14.067Z,6.90
2018-09-06T11:20:42.341Z,8.30
2018-09-06T11:23:10.548Z,7.70
2018-09-06T11:25:38.765Z,7.47
2018-09-06T11:30:40.342Z,7.10
2018-09-06T11:33:08.607Z,7.40
2018-09-06T11:35:36.746Z,6.97
2018-09-06T11:38:05.098Z,7.23
2018-09-06T11:40:33.302Z,7.10
2018-09-06T11:43:01.431Z,7.03
2018-09-06T11:45:29.858Z,7.40
2018-09-06T11:47:58.110Z,6.90
2018-09-06T11:50:26.342Z,6.60
2018-09-06T11:52:54.519Z,6.85
2018-09-06T11:55:22.719Z,7.20
2018-09-06T11:57:51.172Z,6.93
2018-09-06T12:00:19.495Z,7.40
2018-09-06T12:02:47.727Z,7.00
2018-09-06T12:05:15.929Z,7.47
2018-09-06T12:07:44.129Z,7.40
2018-09-06T12:10:12.307Z,6.45
2018-09-06T12:12:40.477Z,6.35
2018-09-06T12:15:08.708Z,6.83
2018-09-06T12:17:36.876Z,6.30
2018-09-06T12:20:05.297Z,7.55
2018-09-06T12:22:33.472Z,6.97
2018-09-06T12:25:02.027Z,9.20
2018-09-06T12:27:30.280Z,9.30
2018-09-06T12:29:58.781Z,7.40
2018-09-06T12:32:26.974Z,6.65
2018-09-06T12:34:55.402Z,7.10
2018-09-06T12:37:23.868Z,7.28
2018-09-06T12:39:52.062Z,6.77
2018-09-06T12:42:20.240Z,7.07
2018-09-06T12:44:48.475Z,6.20
2018-09-06T12:47:16.688Z,6.00
2018-09-06T12:49:44.918Z,6.55
2018-09-06T12:52:13.060Z,6.90
2018-09-06T12:54:41.234Z,6.62
2018-09-06T12:57:09.414Z,7.60
2018-09-06T12:59:37.618Z,6.30
2018-09-06T13:02:05.837Z,6.67
2018-09-06T13:04:34.117Z,7.15
2018-09-06T13:07:02.424Z,6.58
2018-09-06T13:09:30.637Z,6.15
2018-09-06T13:11:58.853Z,7.35
2018-09-06T13:14:27.294Z,6.65
2018-09-06T13:16:55.522Z,6.83
2018-09-06T13:19:23.937Z,7.28
2018-09-06T13:21:52.167Z,6.72
2018-09-06T13:24:20.422Z,6.70
2018-09-06T13:26:49.173Z,6.75
2018-09-06T13:29:17.352Z,6.28
2018-09-06T13:31:45.551Z,6.75
2018-09-06T13:34:13.848Z,6.30
2018-09-06T13:36:42.028Z,6.92
2018-09-06T13:39:11.164Z,6.40
2018-09-06T13:41:39.650Z,6.87
2018-09-06T13:44:07.882Z,6.92
2018-09-06T13:46:36.306Z,6.70
2018-09-06T13:49:04.486Z,6.62
2018-09-06T13:51:32.705Z,6.83
2018-09-06T13:54:00.897Z,6.37
2018-09-06T13:56:30.082Z,6.30
2018-09-06T13:58:58.545Z,6.58
2018-09-06T14:01:26.777Z,6.62
2018-09-06T14:03:54.936Z,6.80
2018-09-06T14:06:23.200Z,6.95
2018-09-06T14:08:51.381Z,6.20
2018-09-06T14:11:19.571Z,6.03
2018-09-06T14:13:47.947Z,6.83
2018-09-06T14:16:16.237Z,7.25
2018-09-06T14:18:44.422Z,7.17
2018-09-06T14:21:12.771Z,6.33
2018-09-06T14:23:40.951Z,6.65
2018-09-06T14:26:09.169Z,5.80
2018-09-06T14:28:37.356Z,6.72
2018-09-06T14:31:05.535Z,6.70
2018-09-06T14:33:33.787Z,7.58
2018-09-06T14:36:02.138Z,6.72
2018-09-06T14:38:30.414Z,5.50
2018-09-06T14:40:58.550Z,6.62
2018-09-06T14:43:26.738Z,61.95
2018-09-06T14:45:54.907Z,8.97
2018-09-06T14:48:23.473Z,6.92
2018-09-06T14:50:51.809Z,6.03
2018-09-06T14:53:19.998Z,6.50
2018-09-06T14:55:48.189Z,6.70
2018-09-06T14:58:16.463Z,6.55
2018-09-06T15:00:44.722Z,6.95
2018-09-06T15:03:12.903Z,6.60
2018-09-06T15:05:41.222Z,6.80
2018-09-06T15:08:09.414Z,6.73
2018-09-06T15:10:37.683Z,7.20
2018-09-06T15:13:06.131Z,7.80
2018-09-06T15:15:34.393Z,6.50
2018-09-06T15:18:02.583Z,6.80
2018-09-06T15:20:30.853Z,7.23
2018-09-06T15:22:59.325Z,6.73
2018-09-06T15:25:27.501Z,7.20
2018-09-06T15:27:55.837Z,7.20
2018-09-06T15:30:23.960Z,7.17
2018-09-06T15:32:52.205Z,7.57
2018-09-06T15:35:21.238Z,6.97
2018-09-06T15:37:49.438Z,7.73
2018-09-06T15:40:17.654Z,7.37
2018-09-06T15:42:45.944Z,7.70
2018-09-06T15:45:14.544Z,7.00
2018-09-06T15:47:43.078Z,7.33
2018-09-06T15:50:11.455Z,7.10
2018-09-06T15:52:39.810Z,6.93
2018-09-06T15:55:08.038Z,7.10
2018-09-06T15:57:36.584Z,7.80
2018-09-06T16:00:04.816Z,8.07
2018-09-06T16:02:33.069Z,8.17
2018-09-06T16:05:01.256Z,7.13
2018-09-06T16:07:29.466Z,7.43
2018-09-06T16:09:57.642Z,7.37
2018-09-06T16:12:26.164Z,6.90
2018-09-06T16:14:54.329Z,7.33
2018-09-06T16:17:22.487Z,7.53
2018-09-06T16:19:50.717Z,7.63
2018-09-06T16:22:18.974Z,7.70
2018-09-06T16:24:47.208Z,9.43
2018-09-06T16:27:15.377Z,14.10
2018-09-06T16:29:43.561Z,8.87
2018-09-06T16:32:11.733Z,7.23
2018-09-06T16:34:39.975Z,7.33
2018-09-06T16:37:08.474Z,7.47
2018-09-06T16:39:36.701Z,7.33
2018-09-06T16:42:04.940Z,7.67
2018-09-06T16:44:33.716Z,7.13
2018-09-06T16:47:01.919Z,6.70
2018-09-06T16:49:30.121Z,6.70
2018-09-06T16:51:58.377Z,10.47
2018-09-06T16:54:26.700Z,8.03
2018-09-06T16:56:54.884Z,7.60
2018-09-06T16:59:23.058Z,13.47
2018-09-06T17:01:51.236Z,29.80
2018-09-06T17:04:19.430Z,13.23
2018-09-06T17:06:47.666Z,14.70
2018-09-06T17:09:15.806Z,50.63
2018-09-06T17:11:44.100Z,29.90
2018-09-06T17:14:12.356Z,12.87
2018-09-06T17:16:40.531Z,9.50
2018-09-06T17:19:08.766Z,13.20
2018-09-06T17:21:37.185Z,12.17
2018-09-06T17:24:05.469Z,8.60
2018-09-06T17:26:33.649Z,7.57
2018-09-06T17:29:01.834Z,13.13
2018-09-06T17:31:30.034Z,9.77
2018-09-06T17:33:58.319Z,9.50
2018-09-06T17:36:26.753Z,8.50
2018-09-06T17:38:55.090Z,9.47
2018-09-06T17:41:23.749Z,11.87
2018-09-06T17:43:52.011Z,9.00
2018-09-06T17:46:20.554Z,9.80
2018-09-06T17:48:48.836Z,8.37
2018-09-06T17:51:17.003Z,8.37
2018-09-06T17:53:45.254Z,8.40
2018-09-06T17:56:13.539Z,8.17
2018-09-06T17:58:42.047Z,8.37
2018-09-06T18:01:22.933Z,8.23
2018-09-06T18:03:51.224Z,9.67
2018-09-06T18:06:19.584Z,9.00
2018-09-06T18:08:47.786Z,9.00
2018-09-06T18:11:16.000Z,8.90
2018-09-06T18:13:44.198Z,10.00
2018-09-06T18:16:12.849Z,10.50
2018-09-06T18:18:41.512Z,10.77
2018-09-06T18:21:09.704Z,10.37
2018-09-06T18:23:37.929Z,9.70
2018-09-06T18:26:06.130Z,10.63
2018-09-06T18:28:34.533Z,15.10
2018-09-06T18:31:03.064Z,39.20
2018-09-06T18:33:31.578Z,13.90
2018-09-06T18:36:00.383Z,14.13
2018-09-06T18:38:28.637Z,23.50
2018-09-06T18:40:56.957Z,16.40
2018-09-06T18:43:25.259Z,15.67
2018-09-06T18:45:53.594Z,16.10
2018-09-06T18:48:21.899Z,13.20
2018-09-06T18:50:50.233Z,14.20
2018-09-06T18:53:18.419Z,11.80
2018-09-06T18:55:46.637Z,13.30
2018-09-06T18:58:14.853Z,10.90
2018-09-06T19:00:43.102Z,11.80
2018-09-06T19:03:11.359Z,12.57
2018-09-06T19:05:40.081Z,14.07
2018-09-06T19:08:08.318Z,13.83
2018-09-06T19:10:36.516Z,13.30
2018-09-06T19:13:04.710Z,15.07
2018-09-06T19:15:33.466Z,15.33
2018-09-06T19:18:01.842Z,43.40
2018-09-06T19:20:30.039Z,46.30
2018-09-06T19:22:58.225Z,18.80
2018-09-06T19:25:26.473Z,15.20
2018-09-06T19:27:55.333Z,16.00
2018-09-06T19:30:23.674Z,15.10
2018-09-06T19:32:51.926Z,15.20
2018-09-06T19:35:21.211Z,14.70
2018-09-06T19:37:49.498Z,14.60
2018-09-06T19:40:17.684Z,14.97
2018-09-06T19:42:45.869Z,15.30
2018-09-06T19:45:14.083Z,15.87
2018-09-06T19:47:42.317Z,15.60
2018-09-06T19:50:10.555Z,14.53
2018-09-06T19:52:39.151Z,13.67
2018-09-06T19:55:07.339Z,15.30
2018-09-06T19:57:36.518Z,15.50
2018-09-06T20:00:05.428Z,16.23
2018-09-06T20:02:33.757Z,14.00
2018-09-06T20:05:02.167Z,15.40
2018-09-06T20:07:30.471Z,14.33
2018-09-06T20:09:59.046Z,15.77
2018-09-06T20:12:27.254Z,18.93
2018-09-06T20:14:55.712Z,18.70
2018-09-06T20:17:24.723Z,17.00
2018-09-06T20:19:52.910Z,15.93
2018-09-06T20:22:21.178Z,15.43
2018-09-06T20:24:49.412Z,15.80
2018-09-06T20:27:17.640Z,14.50
2018-09-06T20:29:45.841Z,15.07
2018-09-06T20:32:14.112Z,14.20
2018-09-06T20:34:42.310Z,14.97
2018-09-06T20:37:10.594Z,16.70
2018-09-06T20:39:38.873Z,18.30
2018-09-06T20:42:07.769Z,18.03
2018-09-06T20:44:36.321Z,15.37
2018-09-06T20:47:04.689Z,15.80
2018-09-06T20:49:32.949Z,15.37
2018-09-06T20:52:01.209Z,15.73
2018-09-06T20:54:29.381Z,15.30
2018-09-06T20:56:57.605Z,16.37
2018-09-06T20:59:25.819Z,15.60
2018-09-06T21:01:54.458Z,16.03
2018-09-06T21:04:22.637Z,16.27
2018-09-06T21:06:50.965Z,16.50
2018-09-06T21:09:19.148Z,15.67
2018-09-06T21:11:47.346Z,15.47
2018-09-06T21:14:15.672Z,17.97
2018-09-06T21:16:43.900Z,16.20
2018-09-06T21:19:12.197Z,17.17
2018-09-06T21:21:40.466Z,15.90
2018-09-06T21:24:08.658Z,14.97
2018-09-06T21:26:36.900Z,15.83
2018-09-06T21:29:05.304Z,16.60
2018-09-06T21:31:33.570Z,16.27
2018-09-06T21:34:01.747Z,16.40
2018-09-06T21:36:29.935Z,17.23
2018-09-06T21:38:58.179Z,16.63
2018-09-06T21:41:26.446Z,15.40
2018-09-06T21:43:54.750Z,16.40
2018-09-06T21:46:22.945Z,17.67
2018-09-06T21:48:51.122Z,16.97
2018-09-06T21:51:19.430Z,18.00
2018-09-06T21:53:47.729Z,18.00
2018-09-06T21:56:16.005Z,17.90
2018-09-06T21:58:44.193Z,18.30
2018-09-06T22:01:12.472Z,18.60
2018-09-06T22:03:46.100Z,20.30
2018-09-06T22:06:14.286Z,18.20
2018-09-06T22:08:42.465Z,19.73
2018-09-06T22:11:10.701Z,19.47
2018-09-06T22:13:38.954Z,19.20
2018-09-06T22:16:07.134Z,18.60
2018-09-06T22:18:35.858Z,17.90
2018-09-06T22:21:04.102Z,19.30
2018-09-06T22:23:32.292Z,18.87
2018-09-06T22:26:00.486Z,20.07
2018-09-06T22:28:29.146Z,18.97
2018-09-06T22:30:57.413Z,19.10
2018-09-06T22:33:25.611Z,18.97
2018-09-06T22:35:53.851Z,18.80
2018-09-06T22:38:22.139Z,19.70
2018-09-06T22:40:50.428Z,18.70
2018-09-06T22:43:18.601Z,18.00
2018-09-06T22:45:46.772Z,18.80
2018-09-06T22:48:14.965Z,18.67
2018-09-06T22:50:43.201Z,18.67
2018-09-06T22:53:11.388Z,19.67
2018-09-06T22:55:39.565Z,19.20
2018-09-06T22:58:07.852Z,19.73
2018-09-06T23:00:36.117Z,19.10
2018-09-06T23:03:09.609Z,19.80
2018-09-06T23:05:38.133Z,19.60
2018-09-06T23:08:06.795Z,18.27
2018-09-06T23:10:35.056Z,19.50
2018-09-06T23:13:03.230Z,20.07
2018-09-06T23:15:31.414Z,19.17
2018-09-06T23:17:59.612Z,19.27
2018-09-06T23:20:27.814Z,19.43
2018-09-06T23:22:55.981Z,19.03
2018-09-06T23:25:24.185Z,19.27
2018-09-06T23:27:52.394Z,19.10
2018-09-06T23:30:20.564Z,18.07
2018-09-06T23:32:48.788Z,18.13
2018-09-06T23:35:17.111Z,18.50
2018-09-06T23:37:45.378Z,18.10
2018-09-06T23:40:13.574Z,18.10
2018-09-06T23:42:41.816Z,18.80
2018-09-06T23:45:10.220Z,18.53
2018-09-06T23:47:38.602Z,18.93
2018-09-06T23:50:06.860Z,18.90
2018-09-06T23:52:35.030Z,18.70
2018-09-06T23:55:03.328Z,18.43
2018-09-06T23:57:31.581Z,18.63
2018-09-06T23:59:59.766Z,19.63
